Time;durP1;ratioP1;P1;durP2;ratioP2;P2;SDS_P1;SDS_P2;PMS_P1;PMS_P2;Temp;Humidity;BMP_temperature;BMP_pressure;BME280_temperature;BME280_humidity;BME280_pressure;Samples;Min_cycle;Max_cycle;Signal;HPM_P1;HPM_P2
2022/08/17 00:00:46;;;;;;;18.65;10.77;;;18.70;99.90;;;;;;4990381;28;20118;-83
2022/08/17 00:03:16;;;;;;;14.95;9.52;;;18.80;99.90;;;;;;4990241;28;20030;-84
2022/08/17 00:05:52;;;;;;;17.20;9.80;;;18.80;99.90;;;;;;4985728;28;20065;-83
2022/08/17 00:08:24;;;;;;;18.58;9.77;;;18.80;99.90;;;;;;4997993;28;20026;-84
2022/08/17 00:10:51;;;;;;;19.60;9.95;;;18.80;99.90;;;;;;5003711;28;20030;-83
2022/08/17 00:13:41;;;;;;;21.95;10.68;;;18.90;99.90;;;;;;4991745;28;20066;-84
2022/08/17 00:16:13;;;;;;;18.20;10.60;;;18.90;99.90;;;;;;4985261;28;20053;-83
2022/08/17 00:18:39;;;;;;;17.50;10.45;;;18.90;99.90;;;;;;4987463;28;20082;-84
2022/08/17 00:21:08;;;;;;;17.48;10.95;;;18.90;99.90;;;;;;4988948;28;20461;-83
2022/08/17 00:23:34;;;;;;;20.30;11.40;;;18.90;99.90;;;;;;4988943;28;20034;-84
2022/08/17 00:26:00;;;;;;;16.80;10.80;;;18.90;99.90;;;;;;4983984;28;20034;-84
2022/08/17 00:28:26;;;;;;;22.17;10.07;;;19.00;99.90;;;;;;4989672;28;20034;-83
2022/08/17 00:30:52;;;;;;;16.60;9.77;;;19.00;99.90;;;;;;4987671;28;20053;-83
2022/08/17 00:33:21;;;;;;;15.88;10.23;;;19.20;99.90;;;;;;4992468;28;20023;-83
2022/08/17 00:35:48;;;;;;;17.73;9.27;;;19.20;99.90;;;;;;4988063;28;20027;-83
2022/08/17 00:38:15;;;;;;;17.92;8.98;;;19.30;99.90;;;;;;4991881;28;20045;-83
2022/08/17 00:40:51;;;;;;;15.85;9.40;;;19.40;99.90;;;;;;4990874;28;20566;-83
2022/08/17 00:43:27;;;;;;;17.30;9.15;;;19.40;99.90;;;;;;4991646;28;20045;-83
2022/08/17 00:45:54;;;;;;;15.38;8.90;;;19.50;99.90;;;;;;4991653;28;20399;-83
2022/08/17 00:48:20;;;;;;;13.05;7.97;;;19.50;99.90;;;;;;4992438;28;20396;-84
2022/08/17 00:51:05;;;;;;;14.05;8.80;;;19.50;99.90;;;;;;4989529;28;20027;-84
2022/08/17 00:53:34;;;;;;;13.43;7.63;;;19.50;99.90;;;;;;4994370;28;20066;-84
2022/08/17 00:56:03;;;;;;;13.13;7.93;;;19.60;99.90;;;;;;4990721;28;20098;-84
2022/08/17 00:58:31;;;;;;;16.05;8.45;;;19.60;99.90;;;;;;5010399;28;20066;-84
2022/08/17 01:01:00;;;;;;;13.60;7.85;;;19.60;99.90;;;;;;4995300;28;20041;-84
2022/08/17 01:03:26;;;;;;;13.00;7.70;;;19.60;99.90;;;;;;4994670;28;20023;-84
2022/08/17 01:05:56;;;;;;;16.75;8.23;;;19.50;99.90;;;;;;4994574;28;20293;-84
2022/08/17 01:08:24;;;;;;;15.73;8.75;;;19.50;99.90;;;;;;4994363;28;20039;-84
2022/08/17 01:10:54;;;;;;;13.02;8.77;;;19.40;99.90;;;;;;4994693;28;20045;-84
2022/08/17 01:13:22;;;;;;;15.10;9.15;;;19.30;99.90;;;;;;4995240;28;20018;-83
2022/08/17 01:16:01;;;;;;;17.95;9.38;;;19.40;99.90;;;;;;4994505;28;20511;-83
2022/08/17 01:18:27;;;;;;;17.58;9.38;;;19.30;99.90;;;;;;4994890;28;20022;-83
2022/08/17 01:20:56;;;;;;;13.48;8.75;;;19.10;99.90;;;;;;4991578;28;20399;-83
2022/08/17 01:23:24;;;;;;;16.25;8.90;;;19.10;99.90;;;;;;4994326;28;20092;-83
2022/08/17 01:26:00;;;;;;;14.38;8.02;;;19.10;99.90;;;;;;5004946;28;20042;-83
2022/08/17 01:28:33;;;;;;;13.98;8.02;;;19.10;99.90;;;;;;4995424;28;20045;-83
2022/08/17 01:31:01;;;;;;;15.38;8.43;;;19.10;99.90;;;;;;5008389;28;20033;-84
2022/08/17 01:33:28;;;;;;;13.10;8.68;;;19.10;99.90;;;;;;4994150;28;20045;-84
2022/08/17 01:35:53;;;;;;;15.43;9.15;;;19.00;99.90;;;;;;4990825;28;20085;-83
2022/08/17 01:38:19;;;;;;;13.95;7.97;;;19.00;99.90;;;;;;4986752;28;20038;-83
2022/08/17 01:40:57;;;;;;;15.48;8.50;;;18.90;99.90;;;;;;4997175;28;20031;-83
2022/08/17 01:43:31;;;;;;;16.17;9.20;;;18.70;99.90;;;;;;4991510;28;20393;-83
2022/08/17 01:45:59;;;;;;;16.90;9.13;;;18.70;99.90;;;;;;4991262;28;20023;-83
2022/08/17 01:48:30;;;;;;;14.90;8.98;;;18.60;99.90;;;;;;4991663;28;20434;-83
2022/08/17 01:50:56;;;;;;;14.88;9.15;;;18.40;99.90;;;;;;5008933;28;20026;-83
2022/08/17 01:53:28;;;;;;;13.90;8.50;;;18.30;99.90;;;;;;4992687;28;20880;-83
2022/08/17 01:56:15;;;;;;;12.55;8.77;;;18.30;99.90;;;;;;5003252;28;20141;-83
2022/08/17 01:58:41;;;;;;;18.38;9.57;;;18.20;99.90;;;;;;4994874;28;20022;-84
2022/08/17 02:01:08;;;;;;;14.57;9.32;;;18.20;99.90;;;;;;4992793;28;20022;-84
2022/08/17 02:03:35;;;;;;;14.68;8.43;;;18.20;99.90;;;;;;4996911;28;20383;-83
2022/08/17 02:06:01;;;;;;;17.08;9.00;;;18.20;99.90;;;;;;5001862;28;20038;-83
2022/08/17 02:08:27;;;;;;;16.05;8.35;;;18.40;99.90;;;;;;4988974;28;20041;-83
2022/08/17 02:10:53;;;;;;;15.23;7.50;;;18.50;99.90;;;;;;4993521;28;20030;-83
2022/08/17 02:13:20;;;;;;;15.05;8.38;;;18.70;99.90;;;;;;4993777;28;20039;-83
2022/08/17 02:15:46;;;;;;;14.45;8.00;;;18.80;99.90;;;;;;4994387;28;20042;-83
2022/08/17 02:18:13;;;;;;;13.75;8.30;;;18.90;99.90;;;;;;4992166;28;20109;-83
2022/08/17 02:20:41;;;;;;;12.50;7.85;;;18.90;99.90;;;;;;4992774;28;20027;-84
2022/08/17 02:23:09;;;;;;;13.57;8.00;;;19.00;99.90;;;;;;4995009;28;20040;-83
2022/08/17 02:25:37;;;;;;;13.57;7.28;;;18.90;99.90;;;;;;4986957;28;20038;-83
2022/08/17 02:28:17;;;;;;;13.95;8.48;;;18.90;99.90;;;;;;4983799;28;20026;-83
2022/08/17 02:30:43;;;;;;;13.80;8.10;;;18.80;99.90;;;;;;4990598;28;20037;-83
2022/08/17 02:33:10;;;;;;;14.40;8.15;;;18.70;99.90;;;;;;4999830;28;20030;-83
2022/08/17 02:35:36;;;;;;;15.50;8.95;;;18.50;99.90;;;;;;4987532;28;20031;-83
2022/08/17 02:38:04;;;;;;;14.50;7.78;;;18.50;99.90;;;;;;4992070;28;20027;-83
2022/08/17 02:40:31;;;;;;;14.32;8.02;;;18.50;99.90;;;;;;4991997;28;20116;-83
2022/08/17 02:42:58;;;;;;;13.75;8.23;;;18.50;99.90;;;;;;4988399;28;20125;-83
2022/08/17 02:45:24;;;;;;;14.10;8.10;;;18.70;99.90;;;;;;4988918;28;20030;-83
2022/08/17 02:47:50;;;;;;;15.90;7.50;;;18.80;99.90;;;;;;4993427;28;20034;-83
2022/08/17 02:50:18;;;;;;;13.35;7.45;;;18.80;99.90;;;;;;4991754;28;20034;-83
2022/08/17 02:52:46;;;;;;;17.17;7.38;;;18.80;99.90;;;;;;4983839;28;20546;-83
2022/08/17 02:55:19;;;;;;;11.60;7.22;;;18.90;99.90;;;;;;4982762;28;20109;-83
2022/08/17 02:57:46;;;;;;;12.00;6.55;;;19.10;99.90;;;;;;4993191;28;20034;-83
2022/08/17 03:00:20;;;;;;;11.77;6.55;;;19.20;99.90;;;;;;4988338;28;20018;-83
2022/08/17 03:02:46;;;;;;;10.85;6.50;;;19.30;99.90;;;;;;4986324;28;20394;-83
2022/08/17 03:05:14;;;;;;;11.63;6.90;;;19.30;99.90;;;;;;4991714;28;21820;-83
2022/08/17 03:07:41;;;;;;;12.10;6.97;;;19.10;99.90;;;;;;4993119;28;20054;-84
2022/08/17 03:10:08;;;;;;;15.70;7.03;;;19.00;99.90;;;;;;4988060;28;20058;-83
2022/08/17 03:12:40;;;;;;;13.10;6.82;;;19.00;99.90;;;;;;4986814;28;20034;-83
2022/08/17 03:15:29;;;;;;;14.38;7.22;;;18.90;99.90;;;;;;4988835;28;20046;-83
2022/08/17 03:17:56;;;;;;;15.67;7.30;;;18.80;99.90;;;;;;4988094;28;20465;-83
2022/08/17 03:20:23;;;;;;;15.88;7.30;;;18.90;99.90;;;;;;4991197;28;20285;-83
2022/08/17 03:22:52;;;;;;;13.32;6.40;;;18.90;99.90;;;;;;4991355;28;20121;-83
2022/08/17 03:25:29;;;;;;;15.15;7.32;;;18.90;99.90;;;;;;4988170;28;20069;-84
2022/08/17 03:27:55;;;;;;;12.70;7.20;;;18.90;99.90;;;;;;4986866;28;20050;-83
2022/08/17 03:30:24;;;;;;;11.95;6.95;;;18.70;99.90;;;;;;4988355;28;20022;-84
2022/08/17 03:32:51;;;;;;;14.38;7.32;;;18.70;99.90;;;;;;4994271;28;20031;-83
2022/08/17 03:35:20;;;;;;;17.20;8.00;;;18.70;99.90;;;;;;4993296;28;20152;-83
2022/08/17 03:37:46;;;;;;;11.52;6.97;;;18.60;99.90;;;;;;4989351;28;20065;-83
2022/08/17 03:40:12;;;;;;;11.77;7.07;;;18.50;99.90;;;;;;4991131;28;20026;-83
2022/08/17 03:42:39;;;;;;;15.00;7.93;;;18.50;99.90;;;;;;4990141;28;20034;-83
2022/08/17 03:45:09;;;;;;;14.30;7.22;;;18.40;99.90;;;;;;4987754;28;20018;-83
2022/08/17 03:58:43;;;;;;;13.93;7.65;;;18.40;99.90;;;;;;4986789;28;20037;-84
2022/08/17 04:01:09;;;;;;;14.65;8.55;;;18.40;99.90;;;;;;4978611;28;20114;-83
2022/08/17 04:03:35;;;;;;;16.75;8.15;;;18.20;99.90;;;;;;4985210;28;20149;-83
2022/08/17 04:06:01;;;;;;;14.77;8.10;;;18.10;99.90;;;;;;4981466;28;20751;-84
2022/08/17 04:08:30;;;;;;;16.08;8.35;;;18.00;99.90;;;;;;4987409;28;20053;-83
2022/08/17 04:10:56;;;;;;;14.43;7.72;;;18.00;99.90;;;;;;4987528;28;20125;-83
2022/08/17 04:13:22;;;;;;;15.57;8.30;;;18.00;99.90;;;;;;4991773;28;20065;-83
2022/08/17 04:15:48;;;;;;;13.70;7.40;;;18.00;99.90;;;;;;4985266;28;20039;-83
2022/08/17 04:18:17;;;;;;;13.48;7.68;;;18.10;99.90;;;;;;4990964;28;20105;-83
2022/08/17 04:20:43;;;;;;;17.75;7.70;;;18.20;99.90;;;;;;4986438;28;20031;-83
2022/08/17 04:23:15;;;;;;;11.63;6.93;;;18.30;99.90;;;;;;5003638;28;20038;-83
2022/08/17 04:25:48;;;;;;;13.45;7.10;;;18.30;99.90;;;;;;4982050;28;20053;-83
2022/08/17 04:28:15;;;;;;;17.33;7.45;;;18.20;99.90;;;;;;4983584;28;20038;-83
2022/08/17 04:30:42;;;;;;;13.88;7.47;;;18.20;99.90;;;;;;4987040;28;20054;-83
2022/08/17 04:33:16;;;;;;;14.73;7.35;;;18.20;99.90;;;;;;4985013;28;20022;-83
2022/08/17 04:35:54;;;;;;;13.70;7.38;;;18.30;99.90;;;;;;4986923;28;20497;-83
2022/08/17 04:38:23;;;;;;;13.77;7.60;;;18.40;99.90;;;;;;4996451;28;20483;-83
2022/08/17 04:43:35;;;;;;;13.48;7.03;;;18.50;99.90;;;;;;4983064;28;20049;-83
2022/08/17 04:46:05;;;;;;;11.98;6.75;;;18.60;99.90;;;;;;4986527;28;20050;-83
2022/08/17 04:48:34;;;;;;;15.20;6.93;;;18.70;99.90;;;;;;4988021;28;20050;-83
2022/08/17 04:51:00;;;;;;;16.65;7.05;;;18.80;99.90;;;;;;4991459;28;20042;-83
2022/08/17 04:53:26;;;;;;;15.18;7.18;;;18.80;99.90;;;;;;4989504;28;20031;-83
2022/08/17 04:55:53;;;;;;;11.43;6.82;;;18.90;99.90;;;;;;4992363;28;20041;-83
2022/08/17 04:58:19;;;;;;;13.80;6.25;;;19.00;99.90;;;;;;4981004;28;20030;-83
2022/08/17 05:00:45;;;;;;;11.90;6.70;;;19.10;99.90;;;;;;4986745;28;20137;-83
2022/08/17 05:03:11;;;;;;;12.25;6.05;;;19.20;99.90;;;;;;4990569;28;20030;-83
2022/08/17 05:05:41;;;;;;;11.02;6.30;;;19.40;99.90;;;;;;4989417;28;20042;-83
2022/08/17 05:08:07;;;;;;;;;;;19.60;99.90;;;;;;4984987;28;20037;-83
2022/08/17 05:10:35;;;;;;;14.80;5.95;;;19.80;99.90;;;;;;5006505;28;19936;-83
2022/08/17 05:13:07;;;;;;;10.30;6.20;;;19.80;99.90;;;;;;5006125;28;20018;-83
2022/08/17 05:15:35;;;;;;;11.48;6.38;;;19.90;99.90;;;;;;4980718;28;20514;-84
2022/08/17 05:18:01;;;;;;;13.68;6.40;;;20.10;99.90;;;;;;4991873;28;20019;-83
2022/08/17 05:20:27;;;;;;;12.80;6.68;;;20.20;99.90;;;;;;4991567;28;20046;-83
2022/08/17 05:22:56;;;;;;;11.68;6.35;;;20.30;99.90;;;;;;5001912;28;20030;-83
2022/08/17 05:25:26;;;;;;;14.77;6.32;;;20.30;99.90;;;;;;4991846;28;20035;-83
2022/08/17 05:27:53;;;;;;;11.93;6.13;;;20.40;99.90;;;;;;4988628;28;20034;-83
2022/08/17 05:30:19;;;;;;;11.48;5.70;;;20.40;99.90;;;;;;4981747;28;20285;-84
2022/08/17 05:32:55;;;;;;;11.75;6.03;;;20.50;99.90;;;;;;4991520;28;20029;-84
2022/08/17 05:35:22;;;;;;;11.07;6.03;;;20.60;99.90;;;;;;4989207;28;20023;-83
2022/08/17 05:37:48;;;;;;;11.95;6.40;;;20.60;99.90;;;;;;4990542;28;20598;-84
2022/08/17 05:40:14;;;;;;;15.13;5.90;;;20.60;99.90;;;;;;4993239;28;20501;-84
2022/08/17 05:42:40;;;;;;;10.13;5.75;;;20.70;99.90;;;;;;4993924;28;20043;-84
2022/08/17 05:45:07;;;;;;;15.52;6.65;;;20.70;99.90;;;;;;4993024;28;20019;-84
2022/08/17 05:47:33;;;;;;;15.02;6.57;;;20.70;99.90;;;;;;4993999;28;20023;-84
2022/08/17 05:50:00;;;;;;;17.02;7.18;;;20.70;99.90;;;;;;4990283;28;20078;-84
2022/08/17 05:52:42;;;;;;;17.13;6.85;;;20.70;99.90;;;;;;4983587;28;20037;-84
2022/08/17 05:55:19;;;;;;;15.50;7.20;;;20.80;99.90;;;;;;4982632;28;20556;-84
2022/08/17 05:58:00;;;;;;;33.30;7.38;;;20.80;99.90;;;;;;4989316;28;20022;-84
2022/08/17 06:00:57;;;;;;;13.27;6.72;;;20.80;99.90;;;;;;5001572;28;20052;-84
2022/08/17 06:03:41;;;;;;;19.40;6.80;;;20.90;99.90;;;;;;4989101;28;20610;-82
2022/08/17 06:06:53;;;;;;;16.63;6.85;;;21.10;99.90;;;;;;4982674;28;20035;-81
2022/08/17 06:09:34;;;;;;;19.13;6.60;;;21.20;99.90;;;;;;4959023;28;20031;-81
2022/08/17 06:12:27;;;;;;;12.07;6.53;;;21.30;99.90;;;;;;4947783;28;20058;-81
2022/08/17 06:15:14;;;;;;;19.83;6.68;;;21.50;99.90;;;;;;4973079;28;20038;-81
2022/08/17 06:17:41;;;;;;;11.98;6.28;;;21.70;99.90;;;;;;4999761;28;20439;-82
2022/08/17 06:20:13;;;;;;;14.75;6.45;;;21.90;99.90;;;;;;4989041;28;20492;-82
2022/08/17 06:23:02;;;;;;;19.75;6.40;;;22.00;99.90;;;;;;4989423;28;20392;-82
2022/08/17 06:25:43;;;;;;;9.77;5.53;;;22.10;99.90;;;;;;4984702;28;20164;-82
2022/08/17 06:28:15;;;;;;;12.88;6.00;;;22.10;99.90;;;;;;4986404;28;20026;-83
2022/08/17 06:30:51;;;;;;;10.48;5.88;;;22.30;99.90;;;;;;4991317;28;20363;-83
2022/08/17 06:33:31;;;;;;;10.70;5.70;;;22.50;99.90;;;;;;4987359;28;20094;-82
2022/08/17 06:36:23;;;;;;;13.13;6.00;;;22.60;99.90;;;;;;4987792;28;20035;-82
2022/08/17 06:39:42;;;;;;;11.57;5.93;;;22.70;99.90;;;;;;4984928;28;20062;-82
2022/08/17 06:42:26;;;;;;;10.63;5.63;;;22.90;99.90;;;;;;4981510;28;20085;-81
2022/08/17 06:45:02;;;;;;;12.80;5.97;;;23.00;99.90;;;;;;5005262;28;20026;-82
2022/08/17 06:47:36;;;;;;;11.57;5.47;;;23.20;99.90;;;;;;4980598;28;20058;-82
2022/08/17 06:50:41;;;;;;;11.10;5.45;;;23.30;99.90;;;;;;4989026;28;20437;-82
2022/08/17 06:53:25;;;;;;;11.27;6.10;;;23.40;99.90;;;;;;4944225;29;20024;-82
2022/08/17 06:56:12;;;;;;;14.15;6.47;;;23.40;99.90;;;;;;4982219;28;20049;-81
2022/08/17 06:58:40;;;;;;;13.95;6.30;;;23.40;99.90;;;;;;4985514;28;20043;-82
2022/08/17 07:01:23;;;;;;;16.95;6.00;;;23.60;99.90;;;;;;4988817;28;20431;-82
2022/08/17 07:03:56;;;;;;;15.63;6.13;;;23.60;99.90;;;;;;4983052;28;20141;-82
2022/08/17 07:06:26;;;;;;;12.20;5.68;;;23.60;99.90;;;;;;4988099;28;20764;-82
2022/08/17 07:09:12;;;;;;;12.07;5.95;;;23.80;99.90;;;;;;4984863;28;20046;-82
2022/08/17 07:11:53;;;;;;;11.75;5.82;;;24.00;99.90;;;;;;4982709;28;20422;-83
2022/08/17 07:14:37;;;;;;;12.75;6.28;;;24.30;99.90;;;;;;4980248;28;20063;-82
2022/08/17 07:17:10;;;;;;;16.20;6.22;;;24.40;99.90;;;;;;4985439;28;20023;-82
2022/08/17 07:19:39;;;;;;;11.13;6.05;;;24.50;99.90;;;;;;4989561;28;20081;-82
2022/08/17 07:22:29;;;;;;;14.82;6.57;;;24.70;99.90;;;;;;4981760;28;20086;-82
2022/08/17 07:25:02;;;;;;;14.35;6.55;;;24.70;99.90;;;;;;4999888;28;20030;-82
2022/08/17 07:27:30;;;;;;;12.60;6.78;;;24.90;99.90;;;;;;4988974;28;20062;-82
2022/08/17 07:30:15;;;;;;;17.98;7.32;;;25.00;99.90;;;;;;4995723;28;20477;-82
2022/08/17 07:32:49;;;;;;;17.90;5.95;;;25.30;99.90;;;;;;4987035;28;20084;-82
2022/08/17 07:35:21;;;;;;;12.25;5.50;;;25.30;99.90;;;;;;4982746;28;20027;-82
2022/08/17 07:37:54;;;;;;;11.32;5.55;;;25.40;99.90;;;;;;4987323;28;20487;-82
2022/08/17 07:40:27;;;;;;;12.43;5.00;;;25.50;99.90;;;;;;4978875;28;20458;-82
2022/08/17 07:43:10;;;;;;;11.23;5.32;;;25.80;99.90;;;;;;4986703;28;20027;-82
2022/08/17 07:48:36;;;;;;;11.27;5.38;;;26.10;99.20;;;;;;4986021;28;20053;-82
2022/08/17 07:51:13;;;;;;;;;;;26.10;99.90;;;;;;4988511;28;20030;-82
2022/08/17 07:53:40;;;;;;;16.55;5.43;;;26.00;99.40;;;;;;4978856;28;19912;-82
2022/08/17 07:56:06;;;;;;;11.50;5.85;;;26.30;98.90;;;;;;4986324;28;20871;-82
2022/08/17 07:58:32;;;;;;;10.23;5.07;;;26.90;98.00;;;;;;4983496;28;20534;-82
2022/08/17 08:01:08;;;;;;;10.13;5.25;;;27.30;97.00;;;;;;5000211;28;20057;-82
2022/08/17 08:03:43;;;;;;;15.57;5.15;;;27.80;96.90;;;;;;4986350;28;20026;-82
2022/08/17 08:06:25;;;;;;;10.68;5.22;;;28.10;95.00;;;;;;4981628;28;20037;-82
2022/08/17 08:08:53;;;;;;;9.65;4.80;;;27.90;94.70;;;;;;4982183;28;20039;-82
2022/08/17 08:11:35;;;;;;;11.18;4.47;;;27.60;95.40;;;;;;4982015;28;20027;-82
2022/08/17 08:14:25;;;;;;;12.45;4.45;;;27.60;95.00;;;;;;4978361;28;20026;-82
2022/08/17 08:17:04;;;;;;;10.30;4.72;;;27.70;94.80;;;;;;4983275;28;20487;-82
2022/08/17 08:19:31;;;;;;;9.63;4.80;;;27.90;94.20;;;;;;4984663;28;20041;-81
2022/08/17 08:22:21;;;;;;;10.55;4.93;;;28.00;94.40;;;;;;4986259;28;20262;-82
2022/08/17 08:24:55;;;;;;;11.00;4.97;;;28.40;94.20;;;;;;4989330;28;20662;-82
2022/08/17 08:27:33;;;;;;;9.50;4.47;;;28.70;93.40;;;;;;4997056;28;20043;-82
2022/08/17 08:30:03;;;;;;;12.43;5.03;;;28.70;93.70;;;;;;4989062;28;20137;-82
2022/08/17 08:32:55;;;;;;;10.23;4.63;;;29.50;93.50;;;;;;4985261;28;20030;-82
2022/08/17 08:35:30;;;;;;;13.93;5.15;;;30.00;91.90;;;;;;4983431;28;20041;-82
2022/08/17 08:38:09;;;;;;;7.22;3.70;;;30.00;91.70;;;;;;4986884;28;20035;-82
2022/08/17 08:41:10;;;;;;;7.88;3.92;;;30.20;90.70;;;;;;4978669;28;20049;-82
2022/08/17 08:43:45;;;;;;;8.85;4.28;;;30.10;90.70;;;;;;4960832;28;20498;-82
2022/08/17 08:46:49;;;;;;;8.98;4.45;;;29.90;91.10;;;;;;4988087;28;20028;-82
2022/08/17 08:49:47;;;;;;;13.73;4.50;;;30.40;90.60;;;;;;4962537;28;20522;-82
2022/08/17 08:52:29;;;;;;;9.48;4.55;;;30.30;90.70;;;;;;4940251;28;20071;-82
2022/08/17 08:55:33;;;;;;;8.68;4.22;;;29.70;91.00;;;;;;4970839;28;20034;-82
2022/08/17 08:58:10;;;;;;;10.23;4.60;;;29.30;91.30;;;;;;4981894;28;20069;-82
2022/08/17 09:00:44;;;;;;;9.52;4.43;;;29.00;91.40;;;;;;4983331;28;20086;-82
2022/08/17 09:03:28;;;;;;;10.40;4.65;;;29.00;91.70;;;;;;4982394;28;20156;-83
2022/08/17 09:06:15;;;;;;;8.40;4.25;;;29.40;91.30;;;;;;4981716;28;20565;-82
2022/08/17 09:09:08;;;;;;;12.68;4.68;;;30.10;90.80;;;;;;4997232;28;20030;-82
2022/08/17 09:11:36;;;;;;;9.55;4.38;;;30.20;90.10;;;;;;4980667;28;20038;-82
2022/08/17 09:14:35;;;;;;;9.50;4.20;;;30.30;89.50;;;;;;4986097;28;20098;-82
2022/08/17 09:17:11;;;;;;;9.43;4.30;;;30.40;89.80;;;;;;4980468;28;20269;-82
2022/08/17 09:19:43;;;;;;;9.75;4.13;;;30.30;89.60;;;;;;4987241;28;20027;-82
2022/08/17 09:22:32;;;;;;;9.63;4.32;;;30.10;90.10;;;;;;4983001;28;20456;-82
2022/08/17 09:25:15;;;;;;;10.53;3.97;;;30.00;89.50;;;;;;4980261;28;20052;-82
2022/08/17 09:27:53;;;;;;;10.90;4.47;;;29.70;90.00;;;;;;4987406;28;20165;-82
2022/08/17 09:30:20;;;;;;;10.90;4.57;;;29.40;90.50;;;;;;4978604;28;20026;-82
2022/08/17 09:32:54;;;;;;;8.73;4.43;;;28.90;90.60;;;;;;4991144;28;20090;-82
2022/08/17 09:35:26;;;;;;;10.63;4.45;;;28.60;91.10;;;;;;4980303;28;20029;-82
2022/08/17 09:38:23;;;;;;;10.27;4.40;;;28.40;91.40;;;;;;4986043;28;20030;-82
2022/08/17 09:41:21;;;;;;;9.35;4.45;;;28.40;91.50;;;;;;4986559;28;20087;-82
2022/08/17 09:44:16;;;;;;;10.98;4.82;;;28.40;91.30;;;;;;4972833;28;20039;-82
2022/08/17 09:47:02;;;;;;;8.55;4.43;;;28.30;91.50;;;;;;5004437;28;20118;-82
2022/08/17 09:49:47;;;;;;;10.45;4.50;;;28.00;92.10;;;;;;4985556;28;20062;-82
2022/08/17 09:52:22;;;;;;;10.10;4.35;;;27.80;92.40;;;;;;4991487;28;20034;-82
2022/08/17 09:54:50;;;;;;;9.15;4.07;;;27.90;92.10;;;;;;4979398;28;20026;-82
2022/08/17 09:57:22;;;;;;;9.90;3.97;;;27.90;91.70;;;;;;4989538;28;20118;-82
2022/08/17 10:00:15;;;;;;;12.27;4.45;;;27.60;91.90;;;;;;4982816;28;20062;-81
2022/08/17 10:02:49;;;;;;;8.25;4.28;;;27.70;91.60;;;;;;4989704;28;20419;-82
2022/08/17 10:05:52;;;;;;;11.15;4.45;;;27.70;92.10;;;;;;4981432;28;20038;-81
2022/08/17 10:08:27;;;;;;;8.60;3.90;;;27.70;91.70;;;;;;4994695;28;20030;-82
2022/08/17 10:11:14;;;;;;;12.55;5.07;;;27.60;91.80;;;;;;4991235;28;20053;-81
2022/08/17 10:13:58;;;;;;;12.13;3.97;;;27.50;92.10;;;;;;4992144;28;20089;-81
2022/08/17 10:16:37;;;;;;;8.57;4.10;;;27.40;92.30;;;;;;4985015;28;20033;-83
2022/08/17 10:19:08;;;;;;;11.10;4.50;;;27.30;91.90;;;;;;4990367;28;20022;-83
2022/08/17 10:27:31;;;;;;;9.43;4.25;;;27.10;92.30;;;;;;4985608;28;20109;-82
2022/08/17 10:30:03;;;;;;;11.27;4.38;;;27.00;92.80;;;;;;4989380;28;20037;-81
2022/08/17 10:33:14;;;;;;;8.50;4.43;;;27.00;92.80;;;;;;4980694;28;20069;-81
2022/08/17 10:36:01;;;;;;;10.60;4.22;;;26.80;93.50;;;;;;4950162;28;20023;-83
2022/08/17 10:38:40;;;;;;;10.00;4.60;;;26.60;93.70;;;;;;4985876;28;20129;-82
2022/08/17 10:41:35;;;;;;;8.82;4.03;;;26.60;93.40;;;;;;4987588;28;20081;-81
2022/08/17 10:44:09;;;;;;;8.63;4.05;;;26.60;93.50;;;;;;4980355;28;21005;-83
2022/08/17 10:46:45;;;;;;;10.10;4.35;;;26.60;93.30;;;;;;4989052;28;20039;-81
2022/08/17 10:49:16;;;;;;;10.77;4.60;;;26.60;93.50;;;;;;4985041;28;20056;-83
2022/08/17 10:51:49;;;;;;;12.00;4.57;;;26.60;94.10;;;;;;4986280;28;20029;-81
2022/08/17 10:54:23;;;;;;;8.73;4.70;;;26.70;93.80;;;;;;4987051;28;20068;-81
2022/08/17 10:56:51;;;;;;;10.35;4.70;;;26.80;93.70;;;;;;4977659;28;20114;-81
2022/08/17 10:59:35;;;;;;;11.45;4.70;;;26.90;93.80;;;;;;4988839;28;20022;-81
2022/08/17 11:02:17;;;;;;;9.00;5.10;;;26.90;94.50;;;;;;4990752;28;20034;-81
2022/08/17 11:05:16;;;;;;;11.15;5.45;;;26.70;94.40;;;;;;4982376;28;20046;-83
2022/08/17 11:07:45;;;;;;;15.50;6.40;;;26.40;95.10;;;;;;4998384;28;20043;-81
2022/08/17 11:10:29;;;;;;;15.82;5.80;;;26.30;95.10;;;;;;4980044;28;20049;-82
2022/08/17 11:13:22;;;;;;;10.98;5.80;;;25.90;95.40;;;;;;4996616;28;20034;-81
2022/08/17 11:16:00;;;;;;;10.75;6.35;;;25.90;95.60;;;;;;4996421;28;20181;-81
2022/08/17 11:18:29;;;;;;;10.07;5.47;;;25.70;96.10;;;;;;4989017;28;20133;-81
2022/08/17 11:21:09;;;;;;;13.45;5.97;;;25.80;96.40;;;;;;4997818;28;20022;-83
2022/08/17 11:23:56;;;;;;;17.20;7.43;;;25.60;96.80;;;;;;4979920;28;20030;-83
2022/08/17 11:26:33;;;;;;;15.00;7.05;;;25.30;97.80;;;;;;4988997;28;20045;-84
2022/08/17 11:29:09;;;;;;;13.25;7.47;;;25.20;98.40;;;;;;4975361;28;20075;-83
2022/08/17 11:31:39;;;;;;;15.32;7.97;;;25.20;98.70;;;;;;4981840;28;20045;-83
2022/08/17 11:34:21;;;;;;;15.93;6.90;;;25.20;98.90;;;;;;4984551;28;20418;-82
2022/08/17 11:37:27;;;;;;;12.75;7.53;;;25.20;99.20;;;;;;4979459;28;20084;-83
2022/08/17 11:40:21;;;;;;;16.02;8.95;;;25.40;99.20;;;;;;4979269;28;20030;-83
2022/08/17 11:43:51;;;;;;;16.00;8.77;;;25.40;99.20;;;;;;4976907;28;20058;-84
2022/08/17 11:52:31;;;;;;;15.95;9.68;;;26.10;98.60;;;;;;4984228;28;20034;-83
2022/08/17 11:54:58;;;;;;;13.57;8.65;;;26.50;97.80;;;;;;4982555;28;20037;-83
2022/08/17 11:57:28;;;;;;;14.40;8.63;;;26.60;97.60;;;;;;4987797;28;20022;-83
2022/08/17 11:59:57;;;;;;;15.93;8.57;;;26.60;97.40;;;;;;4998389;28;20026;-83
2022/08/17 12:02:26;;;;;;;15.20;8.80;;;26.80;97.70;;;;;;4991732;28;21564;-83
2022/08/17 12:05:11;;;;;;;14.88;8.73;;;27.20;96.80;;;;;;4982619;28;20121;-81
2022/08/17 12:07:45;;;;;;;20.23;9.80;;;27.70;96.10;;;;;;4984434;28;20398;-82
2022/08/17 12:10:17;;;;;;;13.98;8.80;;;27.50;96.50;;;;;;4984835;28;20035;-81
2022/08/17 12:12:44;;;;;;;19.25;10.40;;;27.30;97.00;;;;;;4982936;28;20760;-81
2022/08/17 12:15:31;;;;;;;14.88;9.75;;;27.00;97.40;;;;;;4987378;28;20038;-81
2022/08/17 12:17:57;;;;;;;16.02;10.27;;;26.70;97.40;;;;;;4980107;28;20023;-81
2022/08/17 12:20:39;;;;;;;19.08;10.18;;;26.20;98.00;;;;;;4986533;28;20034;-81
2022/08/17 12:23:29;;;;;;;20.95;10.43;;;26.40;98.10;;;;;;4982097;28;20081;-81
2022/08/17 12:26:19;;;;;;;19.70;11.25;;;26.60;98.10;;;;;;4996600;28;20030;-81
2022/08/17 12:28:48;;;;;;;16.77;9.45;;;27.10;97.40;;;;;;4986244;28;20129;-83
2022/08/17 12:31:24;;;;;;;21.00;11.15;;;27.60;96.80;;;;;;4986753;28;20046;-83
2022/08/17 12:33:51;;;;;;;18.13;10.25;;;28.40;95.40;;;;;;4980690;28;20033;-83
2022/08/17 12:36:23;;;;;;;18.42;10.23;;;28.00;95.60;;;;;;4983013;28;20109;-83
2022/08/17 12:39:02;;;;;;;18.60;10.00;;;28.10;95.80;;;;;;4983398;28;20040;-83
2022/08/17 12:41:31;;;;;;;18.05;10.20;;;28.20;96.20;;;;;;4986800;28;20022;-82
2022/08/17 12:44:00;;;;;;;16.00;9.90;;;28.40;95.30;;;;;;4984828;28;20858;-82
2022/08/17 12:46:27;;;;;;;19.13;10.43;;;28.50;95.30;;;;;;4984650;28;20038;-81
2022/08/17 12:49:09;;;;;;;15.98;10.50;;;29.10;94.80;;;;;;4987596;28;20878;-81
2022/08/17 12:51:34;;;;;;;18.65;9.00;;;29.30;94.40;;;;;;4983446;28;20687;-81
2022/08/17 12:54:01;;;;;;;24.77;10.25;;;30.10;93.80;;;;;;4991872;28;20034;-81
2022/08/17 12:56:28;;;;;;;23.02;11.90;;;30.80;93.10;;;;;;4989953;28;20034;-81
2022/08/17 12:58:55;;;;;;;23.17;12.73;;;32.10;91.50;;;;;;4990813;28;20795;-81
2022/08/17 13:01:23;;;;;;;19.67;13.10;;;31.60;91.10;;;;;;4982326;28;20084;-81
2022/08/17 13:03:53;;;;;;;24.52;14.07;;;30.20;92.20;;;;;;4994969;28;20161;-81
2022/08/17 13:06:31;;;;;;;20.55;12.85;;;29.70;92.90;;;;;;4991858;28;20125;-81
2022/08/17 13:09:12;;;;;;;17.85;11.68;;;30.10;93.00;;;;;;4985383;28;20131;-81
2022/08/17 13:11:50;;;;;;;20.30;12.95;;;30.30;92.50;;;;;;4980016;28;20030;-81
2022/08/17 13:14:17;;;;;;;17.40;11.95;;;30.40;92.40;;;;;;4986200;28;20133;-81
2022/08/17 13:16:52;;;;;;;22.77;13.27;;;30.20;92.00;;;;;;4991262;28;20030;-81
2022/08/17 13:19:20;;;;;;;19.95;12.48;;;29.40;92.90;;;;;;4985497;28;20078;-83
2022/08/17 13:21:58;;;;;;;23.77;14.07;;;29.40;93.80;;;;;;4989562;28;20026;-83
2022/08/17 13:24:31;;;;;;;23.30;14.70;;;30.40;92.80;;;;;;4985506;28;20038;-83
2022/08/17 13:27:10;;;;;;;24.02;15.02;;;29.80;93.00;;;;;;4987214;28;20487;-82
2022/08/17 13:29:38;;;;;;;25.20;15.35;;;30.70;92.30;;;;;;4984080;28;20061;-83
2022/08/17 13:32:05;;;;;;;24.38;13.93;;;31.50;91.70;;;;;;4988355;28;20033;-81
2022/08/17 13:34:50;;;;;;;24.58;15.63;;;32.10;90.90;;;;;;4985586;28;20137;-83
2022/08/17 13:37:28;;;;;;;21.50;14.40;;;32.20;90.50;;;;;;4986744;28;20447;-83
2022/08/17 13:40:08;;;;;;;21.98;14.25;;;33.20;90.00;;;;;;4986479;28;20027;-81
2022/08/17 13:42:38;;;;;;;21.27;14.25;;;32.70;89.40;;;;;;4983294;28;20030;-82
2022/08/17 13:45:38;;;;;;;23.95;14.60;;;33.10;89.10;;;;;;5005671;28;20023;-81